createdAt,value
2018-08-25T00:01:23.033Z,23.93
2018-08-25T00:03:50.738Z,23.98
2018-08-25T00:06:18.381Z,23.94
2018-08-25T00:08:45.032Z,23.91
2018-08-25T00:11:13.435Z,23.90
2018-08-25T00:13:41.057Z,23.96
2018-08-25T00:16:07.705Z,23.95
2018-08-25T00:18:35.397Z,23.94
2018-08-25T00:21:02.994Z,23.92
2018-08-25T00:23:30.541Z,23.93
2018-08-25T00:25:58.125Z,23.94
2018-08-25T00:28:25.696Z,23.95
2018-08-25T00:30:58.873Z,23.96
2018-08-25T00:33:25.524Z,23.91
2018-08-25T00:35:52.157Z,23.93
2018-08-25T00:38:20.825Z,23.92
2018-08-25T00:40:48.628Z,23.91
2018-08-25T00:43:16.179Z,23.89
2018-08-25T00:45:44.088Z,23.95
2018-08-25T00:48:10.733Z,23.97
2018-08-25T00:50:37.376Z,24.00
2018-08-25T00:53:04.025Z,23.97
2018-08-25T00:55:30.669Z,23.95
2018-08-25T00:57:57.335Z,23.95
2018-08-25T01:00:24.056Z,23.92
2018-08-25T01:02:50.692Z,23.94
2018-08-25T01:05:18.467Z,23.89
2018-08-25T01:07:45.112Z,23.86
2018-08-25T01:10:13.666Z,23.94
2018-08-25T01:12:40.319Z,23.93
2018-08-25T01:15:08.393Z,23.97
2018-08-25T01:17:35.080Z,23.95
2018-08-25T01:20:01.734Z,23.91
2018-08-25T01:22:28.405Z,23.94
2018-08-25T01:24:55.043Z,23.92
2018-08-25T01:27:21.692Z,23.89
2018-08-25T01:29:49.266Z,23.92
2018-08-25T01:32:16.906Z,23.90
2018-08-25T01:34:44.368Z,23.85
2018-08-25T01:37:11.965Z,23.88
2018-08-25T01:39:39.614Z,23.87
2018-08-25T01:42:07.237Z,23.87
2018-08-25T01:44:34.853Z,23.84
2018-08-25T01:47:02.601Z,23.81
2018-08-25T01:49:30.076Z,23.82
2018-08-25T01:51:57.698Z,23.85
2018-08-25T01:54:25.283Z,23.85
2018-08-25T01:56:52.844Z,23.90
2018-08-25T01:59:20.661Z,23.88
2018-08-25T02:01:49.386Z,23.91
2018-08-25T02:04:17.060Z,23.91
2018-08-25T02:06:45.630Z,23.89
2018-08-25T02:09:13.740Z,23.87
2018-08-25T02:11:41.442Z,23.91
2018-08-25T02:14:09.664Z,23.91
2018-08-25T02:16:37.624Z,23.95
2018-08-25T02:19:05.140Z,23.92
2018-08-25T02:21:32.729Z,23.91
2018-08-25T02:24:00.317Z,23.90
2018-08-25T02:26:28.021Z,23.92
2018-08-25T02:28:55.481Z,23.91
2018-08-25T02:31:23.159Z,23.91
2018-08-25T02:33:49.833Z,23.90
2018-08-25T02:36:18.440Z,23.92
2018-08-25T02:38:45.294Z,23.96
2018-08-25T02:41:11.920Z,23.95
2018-08-25T02:43:38.560Z,23.94
2018-08-25T02:46:05.313Z,23.90
2018-08-25T02:48:31.964Z,23.90
2018-08-25T02:50:58.633Z,23.91
2018-08-25T02:53:25.264Z,23.94
2018-08-25T02:55:51.910Z,23.92
2018-08-25T02:58:18.642Z,23.93
2018-08-25T03:00:45.274Z,23.94
2018-08-25T03:03:13.924Z,23.95
2018-08-25T03:05:41.384Z,23.95
2018-08-25T03:08:08.991Z,23.94
2018-08-25T03:10:35.620Z,23.93
2018-08-25T03:13:03.161Z,23.90
2018-08-25T03:15:30.779Z,23.94
2018-08-25T03:17:58.404Z,23.95
2018-08-25T03:20:25.988Z,23.90
2018-08-25T03:22:53.603Z,23.90
2018-08-25T03:25:21.257Z,23.87
2018-08-25T03:27:50.377Z,23.88
2018-08-25T03:30:18.972Z,23.91
2018-08-25T03:32:46.455Z,23.93
2018-08-25T03:35:15.566Z,23.93
2018-08-25T03:37:44.276Z,23.94
2018-08-25T03:40:11.758Z,23.93
2018-08-25T03:42:39.346Z,23.95
2018-08-25T03:45:07.013Z,23.94
2018-08-25T03:47:34.635Z,23.93
2018-08-25T03:50:02.234Z,23.92
2018-08-25T03:52:28.897Z,23.91
2018-08-25T03:54:56.557Z,23.92
2018-08-25T03:57:24.159Z,23.94
2018-08-25T03:59:51.777Z,23.96
2018-08-25T04:02:19.437Z,23.93
2018-08-25T04:04:47.024Z,23.93
2018-08-25T04:07:14.745Z,23.87
2018-08-25T04:09:42.179Z,23.85
2018-08-25T04:12:09.645Z,23.89
2018-08-25T04:14:37.259Z,23.91
2018-08-25T04:17:03.900Z,23.91
2018-08-25T04:19:30.545Z,23.87
2018-08-25T04:21:57.196Z,23.94
2018-08-25T04:24:23.852Z,23.89
2018-08-25T04:26:51.341Z,23.96
2018-08-25T04:29:19.252Z,23.93
2018-08-25T04:31:46.809Z,23.91
2018-08-25T04:34:14.296Z,23.87
2018-08-25T04:36:41.908Z,23.90
2018-08-25T04:39:10.821Z,23.93
2018-08-25T04:41:38.444Z,23.84
2018-08-25T04:44:06.233Z,23.91
2018-08-25T04:46:33.704Z,23.91
2018-08-25T04:49:01.485Z,23.90
2018-08-25T04:51:28.979Z,23.95
2018-08-25T04:53:56.645Z,23.91
2018-08-25T04:56:24.124Z,23.90
2018-08-25T04:58:51.742Z,23.88
2018-08-25T05:01:19.360Z,23.92
2018-08-25T05:03:46.951Z,23.93
2018-08-25T05:06:14.593Z,23.90
2018-08-25T05:08:42.208Z,23.89
2018-08-25T05:11:08.832Z,23.88
2018-08-25T05:13:36.469Z,23.91
2018-08-25T05:16:04.008Z,23.94
2018-08-25T05:18:31.508Z,23.94
2018-08-25T05:20:59.108Z,23.95
2018-08-25T05:23:26.740Z,23.94
2018-08-25T05:25:54.329Z,23.95
2018-08-25T05:28:21.960Z,23.93
2018-08-25T05:30:49.564Z,23.94
2018-08-25T05:33:17.207Z,23.94
2018-08-25T05:35:44.796Z,23.92
2018-08-25T05:38:13.765Z,23.92
2018-08-25T05:40:41.456Z,23.94
2018-08-25T05:43:09.050Z,23.92
2018-08-25T05:45:36.641Z,23.93
2018-08-25T05:48:04.313Z,23.91
2018-08-25T05:50:31.917Z,23.91
2018-08-25T05:52:59.594Z,23.94
2018-08-25T05:55:27.321Z,23.90
2018-08-25T05:57:53.976Z,23.89
2018-08-25T06:00:21.507Z,23.92
2018-08-25T06:02:49.213Z,23.88
2018-08-25T06:05:16.660Z,23.91
2018-08-25T06:07:44.276Z,23.91
2018-08-25T06:10:10.926Z,23.92
2018-08-25T06:12:38.363Z,23.91
2018-08-25T06:15:06.094Z,23.90
2018-08-25T06:17:33.648Z,23.88
2018-08-25T06:20:00.328Z,23.91
2018-08-25T06:22:27.080Z,23.87
2018-08-25T06:24:53.716Z,23.88
2018-08-25T06:27:21.447Z,23.91
2018-08-25T06:29:49.174Z,23.83
2018-08-25T06:32:16.741Z,23.90
2018-08-25T06:34:44.620Z,23.91
2018-08-25T06:37:12.310Z,23.96
2018-08-25T06:39:39.932Z,23.98
2018-08-25T06:42:07.515Z,24.08
2018-08-25T06:44:35.145Z,24.15
2018-08-25T06:47:02.813Z,24.21
2018-08-25T06:49:30.383Z,24.27
2018-08-25T06:51:58.002Z,24.30
2018-08-25T06:54:25.644Z,24.31
2018-08-25T06:56:52.352Z,24.32
2018-08-25T06:59:20.734Z,24.38
2018-08-25T07:01:48.597Z,24.43
2018-08-25T07:04:16.212Z,24.40
2018-08-25T07:06:46.245Z,24.44
2018-08-25T07:09:14.947Z,24.39
2018-08-25T07:11:43.574Z,24.38
2018-08-25T07:14:11.470Z,24.38
2018-08-25T07:16:38.125Z,24.41
2018-08-25T07:19:04.834Z,24.37
2018-08-25T07:21:32.445Z,24.44
2018-08-25T07:24:00.078Z,24.40
2018-08-25T07:26:27.729Z,24.38
2018-08-25T07:28:55.324Z,24.38
2018-08-25T07:31:21.974Z,24.40
2018-08-25T07:33:49.588Z,24.42
2018-08-25T07:36:17.337Z,24.42
2018-08-25T07:38:44.668Z,24.42
2018-08-25T07:41:12.298Z,24.41
2018-08-25T07:43:38.946Z,24.41
2018-08-25T07:46:05.612Z,24.41
2018-08-25T07:48:32.335Z,24.29
2018-08-25T07:50:59.066Z,24.36
2018-08-25T07:53:25.680Z,24.36
2018-08-25T07:55:52.348Z,24.40
2018-08-25T07:58:20.531Z,24.38
2018-08-25T08:00:47.266Z,24.40
2018-08-25T08:03:14.505Z,24.40
2018-08-25T08:05:41.192Z,24.39
2018-08-25T08:08:07.836Z,24.37
2018-08-25T08:10:34.497Z,24.35
2018-08-25T08:13:01.143Z,24.37
2018-08-25T08:15:27.848Z,24.35
2018-08-25T08:17:54.527Z,24.31
2018-08-25T08:20:21.979Z,24.32
2018-08-25T08:22:49.743Z,24.33
2018-08-25T08:25:16.396Z,24.34
2018-08-25T08:27:44.172Z,24.33
2018-08-25T08:30:11.005Z,24.34
2018-08-25T08:32:38.601Z,24.32
2018-08-25T08:35:05.245Z,24.35
2018-08-25T08:37:31.936Z,24.37
2018-08-25T08:39:58.597Z,24.35
2018-08-25T08:42:26.367Z,24.33
2018-08-25T08:44:53.881Z,24.33
2018-08-25T08:47:21.501Z,24.30
2018-08-25T08:49:50.006Z,24.30
2018-08-25T08:52:16.689Z,24.29
2018-08-25T08:54:44.922Z,24.30
2018-08-25T08:57:12.421Z,24.29
2018-08-25T08:59:40.013Z,24.31
2018-08-25T09:02:06.669Z,24.33
2018-08-25T09:04:34.250Z,24.34
2018-08-25T09:07:01.860Z,24.33
2018-08-25T09:09:29.478Z,24.34
2018-08-25T09:11:57.139Z,24.31
2018-08-25T09:14:24.580Z,24.31
2018-08-25T09:16:52.289Z,24.33
2018-08-25T09:19:19.765Z,24.34
2018-08-25T09:21:46.469Z,24.34
2018-08-25T09:24:15.370Z,24.31
2018-08-25T09:26:42.028Z,24.30
2018-08-25T09:29:09.583Z,24.32
2018-08-25T09:31:36.284Z,24.34
2018-08-25T09:34:03.920Z,24.34
2018-08-25T09:36:30.663Z,24.33
2018-08-25T09:38:58.189Z,24.32
2018-08-25T09:41:25.821Z,24.32
2018-08-25T09:43:53.425Z,24.28
2018-08-25T09:46:21.023Z,24.28
2018-08-25T09:48:49.615Z,24.28
2018-08-25T09:51:16.625Z,24.27
2018-08-25T09:53:44.183Z,24.29
2018-08-25T09:56:21.744Z,24.27
2018-08-25T09:58:49.357Z,24.20
2018-08-25T10:01:22.650Z,24.24
2018-08-25T10:03:50.120Z,24.25
2018-08-25T10:06:16.795Z,24.25
2018-08-25T10:08:44.303Z,24.29
2018-08-25T10:11:11.001Z,24.28
2018-08-25T10:13:38.611Z,24.27
2018-08-25T10:16:06.224Z,24.25
2018-08-25T10:18:33.756Z,24.27
2018-08-25T10:21:00.472Z,24.27
2018-08-25T10:23:27.941Z,24.27
2018-08-25T10:25:55.406Z,24.24
2018-08-25T10:28:23.069Z,24.25
2018-08-25T10:30:49.712Z,24.25
2018-08-25T10:33:17.292Z,24.24
2018-08-25T10:35:44.693Z,24.24
2018-08-25T10:38:12.301Z,24.25
2018-08-25T10:40:38.957Z,24.24
2018-08-25T10:43:06.447Z,24.23
2018-08-25T10:45:33.098Z,24.24
2018-08-25T10:47:59.760Z,24.24
2018-08-25T10:50:26.398Z,24.24
2018-08-25T10:52:54.044Z,24.23
2018-08-25T10:55:20.732Z,24.22
2018-08-25T10:57:49.592Z,24.22
2018-08-25T11:00:16.281Z,24.21
2018-08-25T11:02:43.712Z,24.23
2018-08-25T11:05:10.345Z,24.21
2018-08-25T11:07:36.995Z,24.21
2018-08-25T11:10:03.656Z,24.21
2018-08-25T11:12:30.316Z,24.20
2018-08-25T11:14:56.960Z,24.22
2018-08-25T11:17:23.638Z,24.20
2018-08-25T11:19:51.216Z,24.18
2018-08-25T11:22:19.820Z,24.19
2018-08-25T11:24:47.493Z,24.21
2018-08-25T11:27:15.629Z,24.19
2018-08-25T11:29:44.532Z,24.17
2018-08-25T11:32:12.130Z,24.16
2018-08-25T11:34:39.938Z,24.18
2018-08-25T11:37:06.759Z,24.18
2018-08-25T11:39:34.213Z,24.17
2018-08-25T11:42:00.909Z,24.17
2018-08-25T11:44:28.403Z,24.17
2018-08-25T11:46:55.058Z,24.17
2018-08-25T11:49:22.604Z,24.16
2018-08-25T11:51:49.332Z,24.14
2018-08-25T11:54:15.988Z,24.14
2018-08-25T11:56:44.711Z,24.16
2018-08-25T11:59:12.374Z,24.15
2018-08-25T12:01:39.893Z,24.18
2018-08-25T12:04:07.428Z,24.17
2018-08-25T12:06:35.073Z,24.18
2018-08-25T12:09:02.881Z,24.17
2018-08-25T12:11:29.517Z,24.17
2018-08-25T12:13:57.097Z,24.17
2018-08-25T12:16:24.709Z,24.15
2018-08-25T12:18:52.320Z,24.16
2018-08-25T12:21:20.044Z,24.16
2018-08-25T12:23:48.275Z,24.15
2018-08-25T12:26:15.774Z,24.13
2018-08-25T12:28:43.406Z,24.14
2018-08-25T12:31:10.949Z,24.15
2018-08-25T12:33:38.635Z,24.14
2018-08-25T12:36:06.388Z,24.15
2018-08-25T12:38:33.048Z,24.16
2018-08-25T12:41:00.657Z,24.18
2018-08-25T12:43:27.354Z,24.16
2018-08-25T12:45:53.997Z,24.14
2018-08-25T12:48:20.633Z,24.16
2018-08-25T12:50:48.899Z,24.15
2018-08-25T12:53:15.549Z,24.14
2018-08-25T12:55:43.698Z,24.13
2018-08-25T12:58:11.303Z,24.14
2018-08-25T13:00:38.048Z,24.13
2018-08-25T13:03:04.736Z,24.13
2018-08-25T13:05:32.224Z,24.15
2018-08-25T13:07:59.824Z,24.11
2018-08-25T13:10:28.094Z,24.11
2018-08-25T13:12:55.604Z,24.11
2018-08-25T13:15:22.247Z,24.11
2018-08-25T13:17:49.869Z,24.09
2018-08-25T13:20:17.468Z,24.10
2018-08-25T13:22:46.001Z,24.08
2018-08-25T13:25:14.337Z,24.05
2018-08-25T13:27:41.003Z,24.01
2018-08-25T13:30:08.563Z,24.04
2018-08-25T13:32:36.099Z,23.98
2018-08-25T13:35:03.708Z,23.98
2018-08-25T13:37:30.334Z,23.99
2018-08-25T13:39:57.935Z,24.01
2018-08-25T13:42:25.581Z,23.99
2018-08-25T13:44:53.208Z,24.00
2018-08-25T13:47:19.853Z,23.90
2018-08-25T13:49:47.463Z,23.92
2018-08-25T13:52:16.393Z,23.92
2018-08-25T13:54:44.469Z,23.88
2018-08-25T13:57:11.108Z,23.92
2018-08-25T13:59:37.766Z,23.96
2018-08-25T14:02:04.405Z,23.89
2018-08-25T14:04:31.077Z,23.89
2018-08-25T14:06:58.660Z,23.91
2018-08-25T14:09:26.185Z,23.86
2018-08-25T14:11:53.849Z,23.84
2018-08-25T14:14:21.478Z,23.88
2018-08-25T14:16:48.845Z,23.85
2018-08-25T14:19:15.497Z,23.91
2018-08-25T14:21:42.144Z,23.93
2018-08-25T14:24:08.785Z,23.85
2018-08-25T14:26:35.434Z,23.94
2018-08-25T14:29:02.120Z,23.87
2018-08-25T14:31:28.764Z,23.90
2018-08-25T14:33:55.402Z,23.96
2018-08-25T14:36:22.196Z,23.93
2018-08-25T14:38:49.772Z,23.93
2018-08-25T14:41:16.420Z,23.95
2018-08-25T14:43:44.781Z,23.91
2018-08-25T14:46:11.505Z,23.91
2018-08-25T14:48:39.137Z,23.95
2018-08-25T14:51:06.770Z,23.96
2018-08-25T14:53:33.820Z,23.94
2018-08-25T14:56:01.404Z,23.97
2018-08-25T14:58:28.989Z,23.95
2018-08-25T15:00:56.658Z,23.95
2018-08-25T15:03:23.327Z,23.90
2018-08-25T15:05:51.000Z,23.88
2018-08-25T15:08:18.632Z,23.90
2018-08-25T15:10:46.262Z,23.89
2018-08-25T15:13:15.496Z,23.96
2018-08-25T15:15:43.816Z,23.99
2018-08-25T15:18:11.357Z,23.98
2018-08-25T15:20:39.024Z,23.98
2018-08-25T15:23:06.478Z,23.98
2018-08-25T15:25:34.069Z,24.01
2018-08-25T15:28:01.645Z,24.01
2018-08-25T15:30:29.261Z,24.01
2018-08-25T15:32:56.929Z,24.03
2018-08-25T15:35:24.568Z,24.01
2018-08-25T15:37:51.196Z,24.03
2018-08-25T15:40:18.780Z,24.04
2018-08-25T15:42:46.316Z,24.03
2018-08-25T15:45:14.182Z,24.02
2018-08-25T15:47:41.844Z,24.02
2018-08-25T15:50:09.446Z,24.04
2018-08-25T15:52:36.158Z,24.03
2018-08-25T15:55:02.829Z,24.02
2018-08-25T15:57:30.471Z,24.01
2018-08-25T15:59:57.180Z,23.99
2018-08-25T16:02:24.688Z,24.01
2018-08-25T16:04:52.248Z,23.99
2018-08-25T16:07:19.554Z,24.00
2018-08-25T16:09:47.189Z,23.98
2018-08-25T16:12:13.927Z,23.96
2018-08-25T16:14:41.592Z,23.96
2018-08-25T16:17:09.179Z,23.96
2018-08-25T16:19:36.871Z,23.94
2018-08-25T16:22:04.301Z,23.97
2018-08-25T16:24:30.936Z,23.95
2018-08-25T16:26:58.428Z,23.99
2018-08-25T16:29:25.904Z,23.92
2018-08-25T16:31:53.533Z,23.91
2018-08-25T16:34:21.157Z,23.93
2018-08-25T16:36:49.677Z,23.92
2018-08-25T16:39:17.165Z,23.93
2018-08-25T16:41:44.753Z,23.90
2018-08-25T16:44:12.409Z,23.90
2018-08-25T16:46:40.053Z,23.88
2018-08-25T16:49:07.520Z,23.89
2018-08-25T16:51:35.208Z,23.91
2018-08-25T16:54:02.824Z,23.91
2018-08-25T16:56:30.448Z,23.89
2018-08-25T16:58:57.943Z,23.89
2018-08-25T17:01:24.622Z,23.86
2018-08-25T17:03:51.276Z,23.84
2018-08-25T17:06:19.093Z,23.84
2018-08-25T17:08:46.817Z,23.85
2018-08-25T17:11:14.462Z,23.90
2018-08-25T17:13:42.076Z,23.83
2018-08-25T17:16:08.709Z,23.83
2018-08-25T17:18:36.172Z,23.90
2018-08-25T17:21:02.851Z,23.89
2018-08-25T17:23:29.516Z,23.83
2018-08-25T17:25:56.145Z,23.84
2018-08-25T17:28:23.648Z,23.87
2018-08-25T17:30:50.297Z,23.88
2018-08-25T17:33:16.995Z,23.85
2018-08-25T17:35:44.541Z,23.87
2018-08-25T17:38:11.224Z,23.87
2018-08-25T17:40:37.877Z,23.82
2018-08-25T17:43:04.509Z,23.82
2018-08-25T17:45:32.161Z,23.76
2018-08-25T17:47:58.804Z,23.79
2018-08-25T17:50:25.489Z,23.77
2018-08-25T17:52:52.162Z,23.81
2018-08-25T17:55:19.858Z,23.87
2018-08-25T17:57:47.433Z,23.75
2018-08-25T18:00:15.365Z,23.73
2018-08-25T18:02:43.772Z,23.75
2018-08-25T18:05:10.780Z,23.76
2018-08-25T18:07:37.445Z,23.77
2018-08-25T18:10:04.876Z,23.75
2018-08-25T18:12:31.532Z,23.73
2018-08-25T18:14:59.182Z,23.76
2018-08-25T18:17:26.771Z,23.80
2018-08-25T18:19:53.425Z,23.74
2018-08-25T18:22:20.900Z,23.81
2018-08-25T18:24:49.389Z,23.72
2018-08-25T18:27:16.961Z,23.72
2018-08-25T18:29:44.633Z,23.69
2018-08-25T18:32:11.459Z,23.64
2018-08-25T18:34:39.124Z,23.68
2018-08-25T18:37:06.761Z,23.73
2018-08-25T18:39:34.320Z,23.70
2018-08-25T18:42:01.979Z,23.69
2018-08-25T18:44:28.642Z,23.70
2018-08-25T18:46:56.130Z,23.76
2018-08-25T18:49:23.732Z,23.74
2018-08-25T18:51:51.376Z,23.73
2018-08-25T18:54:20.166Z,23.70
2018-08-25T18:56:47.716Z,23.63
2018-08-25T18:59:15.160Z,23.69
2018-08-25T19:01:41.835Z,23.71
2018-08-25T19:04:09.465Z,23.65
2018-08-25T19:06:36.100Z,23.70
2018-08-25T19:09:04.924Z,23.67
2018-08-25T19:11:31.575Z,23.72
2018-08-25T19:13:59.248Z,23.70
2018-08-25T19:16:25.898Z,23.72
2018-08-25T19:18:53.531Z,23.68
2018-08-25T19:21:20.171Z,23.65
2018-08-25T19:23:46.864Z,23.60
2018-08-25T19:26:14.421Z,23.67
2018-08-25T19:28:42.037Z,23.68
2018-08-25T19:31:08.681Z,23.67
2018-08-25T19:33:36.328Z,23.65
2018-08-25T19:36:03.933Z,23.62
2018-08-25T19:38:31.490Z,23.65
2018-08-25T19:40:59.092Z,23.65
2018-08-25T19:43:26.635Z,23.63
2018-08-25T19:45:54.205Z,23.63
2018-08-25T19:48:21.908Z,23.63
2018-08-25T19:50:50.121Z,23.60
2018-08-25T19:53:16.932Z,23.63
2018-08-25T19:55:44.604Z,23.60
2018-08-25T19:58:12.296Z,23.67
2018-08-25T20:00:38.928Z,23.58
2018-08-25T20:03:05.573Z,23.64
2018-08-25T20:05:33.240Z,23.60
2018-08-25T20:08:00.735Z,23.59
2018-08-25T20:10:28.328Z,23.58
2018-08-25T20:12:55.912Z,23.61
2018-08-25T20:15:23.490Z,23.66
2018-08-25T20:17:51.172Z,23.63
2018-08-25T20:20:18.836Z,23.61
2018-08-25T20:22:45.489Z,23.63
2018-08-25T20:25:14.378Z,23.61
2018-08-25T20:27:41.957Z,23.54
2018-08-25T20:30:08.924Z,23.58
2018-08-25T20:32:36.399Z,23.57
2018-08-25T20:35:03.041Z,23.63
2018-08-25T20:37:29.685Z,23.60
2018-08-25T20:39:57.345Z,23.57
2018-08-25T20:42:23.988Z,23.59
2018-08-25T20:44:50.624Z,23.61
2018-08-25T20:47:17.271Z,23.59
2018-08-25T20:49:44.417Z,23.61
2018-08-25T20:52:11.341Z,23.57
2018-08-25T20:54:37.969Z,23.57
2018-08-25T20:57:04.708Z,23.53
2018-08-25T20:59:31.385Z,23.57
2018-08-25T21:01:58.029Z,23.55
2018-08-25T21:04:24.664Z,23.60
2018-08-25T21:06:51.305Z,23.60
2018-08-25T21:09:18.944Z,23.61
2018-08-25T21:11:45.594Z,23.53
2018-08-25T21:14:12.252Z,23.61
2018-08-25T21:16:38.927Z,23.59
2018-08-25T21:19:06.423Z,23.60
2018-08-25T21:21:33.117Z,23.58
2018-08-25T21:24:00.690Z,23.57
2018-08-25T21:26:28.317Z,23.61
2018-08-25T21:28:56.049Z,23.61
2018-08-25T21:31:23.748Z,23.58
2018-08-25T21:33:51.425Z,23.55
2018-08-25T21:36:19.976Z,23.55
2018-08-25T21:38:47.498Z,23.59
2018-08-25T21:41:16.260Z,23.51
2018-08-25T21:43:44.429Z,23.54
2018-08-25T21:46:12.121Z,23.52
2018-08-25T21:48:39.679Z,23.59
2018-08-25T21:51:07.364Z,23.50
2018-08-25T21:53:35.006Z,23.50
2018-08-25T21:56:02.540Z,23.53
2018-08-25T21:58:30.201Z,23.52
2018-08-25T22:00:57.689Z,23.55
2018-08-25T22:03:26.660Z,23.58
2018-08-25T22:05:55.500Z,23.55
2018-08-25T22:08:23.467Z,23.52
2018-08-25T22:10:51.897Z,23.54
2018-08-25T22:13:21.027Z,23.52
2018-08-25T22:15:49.743Z,23.51
2018-08-25T22:18:18.889Z,23.50
2018-08-25T22:20:46.390Z,23.54
2018-08-25T22:23:14.504Z,23.54
2018-08-25T22:25:42.081Z,23.53
2018-08-25T22:28:08.712Z,23.51
2018-08-25T22:30:36.180Z,23.52
2018-08-25T22:33:03.817Z,23.51
2018-08-25T22:35:31.510Z,23.51
2018-08-25T22:37:58.146Z,23.51
2018-08-25T22:40:25.765Z,23.54
2018-08-25T22:42:52.432Z,23.52
2018-08-25T22:45:20.176Z,23.54
2018-08-25T22:47:46.812Z,23.50
2018-08-25T22:50:15.669Z,23.49
2018-08-25T22:52:49.383Z,23.50
2018-08-25T22:55:17.117Z,23.45
2018-08-25T22:57:44.689Z,23.49
2018-08-25T23:00:12.192Z,23.47
2018-08-25T23:02:40.839Z,23.48
2018-08-25T23:05:08.358Z,23.49
2018-08-25T23:07:35.067Z,23.46
2018-08-25T23:10:02.824Z,23.50
2018-08-25T23:12:30.816Z,23.49
2018-08-25T23:14:58.236Z,23.52
2018-08-25T23:17:25.902Z,23.51
2018-08-25T23:19:53.440Z,23.48
2018-08-25T23:22:21.041Z,23.51
2018-08-25T23:24:49.815Z,23.47
2018-08-25T23:27:17.384Z,23.48
2018-08-25T23:29:45.019Z,23.47
2018-08-25T23:32:14.061Z,23.48
2018-08-25T23:34:41.596Z,23.45
2018-08-25T23:37:09.196Z,23.44
2018-08-25T23:39:35.843Z,23.46
2018-08-25T23:42:02.483Z,23.46
2018-08-25T23:44:29.109Z,23.45
2018-08-25T23:46:55.784Z,23.45
2018-08-25T23:49:23.265Z,23.45
2018-08-25T23:51:50.876Z,23.45
2018-08-25T23:54:17.553Z,23.47
2018-08-25T23:56:44.224Z,23.47
2018-08-25T23:59:10.932Z,23.48
